Time;durP1;ratioP1;P1;durP2;ratioP2;P2;SDS_P1;SDS_P2;PMS_P1;PMS_P2;Temp;Humidity;BMP_temperature;BMP_pressure;BME280_temperature;BME280_humidity;BME280_pressure;Samples;Min_cycle;Max_cycle;Signal;HPM_P1;HPM_P2
2021/03/04 00:00:29;;;;;;;35.25;21.27;;;;;;;7.19;46.55;101220.05;1809156;79;21181;-75
2021/03/04 00:02:57;;;;;;;33.15;20.65;;;;;;;7.19;46.55;101225.38;1809234;79;21188;-77
2021/03/04 00:05:25;;;;;;;29.85;17.90;;;;;;;7.20;46.55;101219.07;1809662;79;21404;-74
2021/03/04 00:07:53;;;;;;;26.85;17.12;;;;;;;7.22;46.57;101218.45;1809681;79;21497;-76
2021/03/04 00:10:21;;;;;;;21.37;14.93;;;;;;;7.24;46.48;101212.55;1809851;79;21067;-76
2021/03/04 00:12:49;;;;;;;25.35;14.58;;;;;;;7.25;46.56;101207.58;1809905;79;21122;-77
2021/03/04 00:15:20;;;;;;;22.42;14.03;;;;;;;7.25;46.55;101203.58;1809946;79;21153;-76
2021/03/04 00:17:48;;;;;;;21.73;13.45;;;;;;;7.23;46.47;101198.38;1809948;79;21145;-74
2021/03/04 00:20:27;;;;;;;23.32;13.05;;;;;;;7.22;46.52;101196.69;1809869;79;21200;-76
2021/03/04 00:22:54;;;;;;;24.52;13.83;;;;;;;7.23;46.49;101192.20;1809840;79;21094;-77
2021/03/04 00:25:28;;;;;;;21.30;12.80;;;;;;;7.22;46.52;101183.36;1809731;79;21078;-76
2021/03/04 00:27:56;;;;;;;20.08;12.55;;;;;;;7.23;46.50;101184.21;1809749;79;21169;-77
2021/03/04 00:30:24;;;;;;;23.35;13.58;;;;;;;7.24;46.41;101175.23;1809828;79;21070;-76
2021/03/04 00:32:52;;;;;;;20.50;12.10;;;;;;;7.25;46.37;101169.78;1809770;79;21069;-79
2021/03/04 00:35:21;;;;;;;22.07;13.20;;;;;;;7.27;46.29;101161.69;1809672;79;21109;-75
2021/03/04 00:37:49;;;;;;;19.80;12.47;;;;;;;7.27;46.27;101155.03;1809638;79;21114;-76
2021/03/04 00:40:19;;;;;;;19.98;12.80;;;;;;;7.25;46.22;101156.95;1809585;79;21134;-78
2021/03/04 00:42:47;;;;;;;20.27;10.95;;;;;;;7.21;46.28;101145.67;1809817;79;21138;-76
2021/03/04 00:45:17;;;;;;;18.67;10.80;;;;;;;7.20;46.32;101143.14;1782296;79;21580;-77
2021/03/04 00:47:46;;;;;;;18.20;11.22;;;;;;;7.18;46.33;101138.43;1805595;79;21138;-78
2021/03/04 00:50:15;;;;;;;16.48;10.35;;;;;;;7.17;46.35;101128.22;1809695;79;21486;-75
2021/03/04 00:52:42;;;;;;;19.57;11.08;;;;;;;7.18;46.41;101131.77;1809465;79;21107;-76
2021/03/04 00:55:11;;;;;;;17.27;10.65;;;;;;;7.16;46.42;101124.36;1809730;79;21529;-78
2021/03/04 00:57:38;;;;;;;16.73;10.38;;;;;;;7.14;46.47;101116.50;1809616;79;21170;-74
2021/03/04 01:00:09;;;;;;;15.75;10.28;;;;;;;7.12;46.59;101116.59;1809495;79;21157;-76
2021/03/04 01:02:37;;;;;;;16.20;9.45;;;;;;;7.14;46.58;101114.32;1809552;79;21130;-77
2021/03/04 01:05:06;;;;;;;15.13;9.80;;;;;;;7.15;46.60;101106.69;1809635;79;21050;-78
2021/03/04 01:07:35;;;;;;;16.05;9.50;;;;;;;7.15;46.66;101094.70;1809911;79;21615;-76
2021/03/04 01:10:10;;;;;;;14.18;9.45;;;;;;;7.16;46.71;101093.72;1809784;79;21501;-77
2021/03/04 01:12:38;;;;;;;15.95;9.98;;;;;;;7.17;46.74;101090.08;1809503;79;21157;-77
2021/03/04 01:15:13;;;;;;;21.00;10.65;;;;;;;7.18;46.79;101083.81;1809655;79;21133;-76
2021/03/04 01:17:40;;;;;;;15.10;9.65;;;;;;;7.17;46.65;101076.77;1809832;79;21042;-79
2021/03/04 01:20:10;;;;;;;17.67;10.03;;;;;;;7.16;46.65;101068.41;1809791;79;21133;-76
2021/03/04 01:22:38;;;;;;;18.05;11.10;;;;;;;7.17;46.62;101066.95;1809494;79;21133;-77
2021/03/04 01:25:08;;;;;;;21.02;11.35;;;;;;;7.19;46.64;101062.85;1809555;79;21091;-78
2021/03/04 01:27:37;;;;;;;20.50;10.58;;;;;;;7.17;46.66;101059.44;1809677;79;21129;-78
2021/03/04 01:30:07;;;;;;;21.23;11.73;;;;;;;7.16;46.65;101059.09;1809687;79;21054;-78
2021/03/04 01:32:35;;;;;;;19.90;11.22;;;;;;;7.18;46.67;101048.69;1809747;79;21079;-75
2021/03/04 01:35:04;;;;;;;19.45;11.73;;;;;;;7.17;46.64;101042.97;1809567;79;21157;-77
2021/03/04 01:37:32;;;;;;;21.55;11.57;;;;;;;7.16;46.67;101039.95;1809616;79;21101;-75
2021/03/04 01:39:59;;;;;;;20.95;10.40;;;;;;;7.19;46.74;101040.20;1809699;79;21150;-76
2021/03/04 01:42:27;;;;;;;16.02;9.65;;;;;;;7.19;46.71;101036.20;1809549;79;21150;-78
2021/03/04 01:44:54;;;;;;;17.85;9.85;;;;;;;7.19;46.70;101032.22;1782898;79;21505;-77
2021/03/04 01:47:22;;;;;;;15.68;9.58;;;;;;;7.16;46.73;101027.12;1782633;79;21054;-78
2021/03/04 01:49:50;;;;;;;15.38;10.53;;;;;;;7.16;46.71;101029.30;1782447;79;21138;-74
2021/03/04 01:52:17;;;;;;;14.03;9.05;;;;;;;7.13;46.67;101020.23;1782631;79;21098;-75
2021/03/04 01:54:45;;;;;;;15.60;9.93;;;;;;;7.13;46.69;101012.25;1782872;79;21051;-77
2021/03/04 01:57:13;;;;;;;12.75;9.88;;;;;;;7.13;46.65;101013.58;1782975;79;21069;-77
2021/03/04 01:59:41;;;;;;;14.07;9.55;;;;;;;7.14;46.59;101015.27;1809741;79;21056;-76
2021/03/04 02:02:08;;;;;;;13.45;8.73;;;;;;;7.14;46.55;100997.95;1810235;79;21138;-76
2021/03/04 02:04:36;;;;;;;14.83;9.88;;;;;;;7.17;46.46;101003.50;1810806;79;21154;-75
2021/03/04 02:07:26;;;;;;;15.80;9.75;;;;;;;7.18;46.44;100999.89;1810689;79;21094;-77
2021/03/04 02:10:06;;;;;;;14.13;10.03;;;;;;;7.16;46.44;101003.14;1810379;79;21054;-76
2021/03/04 02:13:04;;;;;;;15.35;9.63;;;;;;;7.17;46.41;100990.17;1743722;80;22847;-78
2021/03/04 02:15:49;;;;;;;16.20;10.80;;;;;;;7.12;46.41;100994.54;1706773;83;21170;-77
2021/03/04 02:18:17;;;;;;;15.98;10.10;;;;;;;7.10;46.48;100985.35;1736670;82;21413;-73
2021/03/04 02:21:12;;;;;;;19.77;10.65;;;;;;;7.10;46.50;100985.35;1708283;82;21139;-75
2021/03/04 02:24:11;;;;;;;15.85;10.58;;;;;;;7.11;46.50;100984.86;1715606;82;21519;-75
2021/03/04 02:26:59;;;;;;;18.52;11.22;;;;;;;7.10;46.56;100981.36;1737139;82;21095;-76
2021/03/04 02:29:27;;;;;;;21.30;11.57;;;;;;;7.10;46.56;100981.36;1736777;82;21589;-77
2021/03/04 02:31:55;;;;;;;20.00;10.88;;;;;;;7.13;46.44;100973.62;1707606;82;21154;-76
2021/03/04 02:34:26;;;;;;;18.82;11.33;;;;;;;7.11;46.39;100972.39;1736442;82;21220;-76
2021/03/04 02:36:55;;;;;;;24.82;13.35;;;;;;;7.11;46.42;100965.73;1736610;82;21139;-76
2021/03/04 02:39:24;;;;;;;23.85;12.93;;;;;;;7.11;46.36;100960.89;1736570;82;21200;-76
2021/03/04 02:41:51;;;;;;;24.10;13.30;;;;;;;7.07;46.40;100950.12;1707656;82;21087;-75
2021/03/04 02:44:20;;;;;;;29.37;16.25;;;;;;;7.05;46.41;100955.58;1736637;82;21507;-74
2021/03/04 02:46:48;;;;;;;23.80;13.22;;;;;;;7.02;46.40;100943.83;1736654;81;21159;-75
2021/03/04 02:49:19;;;;;;;21.97;11.22;;;;;;;6.98;46.46;100938.87;1685317;82;21107;-75
2021/03/04 02:51:46;;;;;;;23.40;12.93;;;;;;;7.01;46.46;100934.64;1708039;82;21167;-76
2021/03/04 02:54:16;;;;;;;24.37;13.48;;;;;;;6.99;46.43;100931.23;1707787;82;21146;-74
2021/03/04 02:56:44;;;;;;;21.35;12.60;;;;;;;6.98;46.50;100925.06;1736675;82;21642;-77
2021/03/04 02:59:11;;;;;;;22.50;12.73;;;;;;;7.00;46.47;100923.14;1707677;82;21185;-74
2021/03/04 03:01:39;;;;;;;21.52;13.62;;;;;;;7.02;46.47;100918.52;1738245;82;21071;-74
2021/03/04 03:04:07;;;;;;;22.60;13.83;;;;;;;7.03;46.44;100916.22;1737378;82;21071;-76
2021/03/04 03:06:35;;;;;;;22.82;14.95;;;;;;;7.06;46.43;100915.13;1737503;82;21143;-73
2021/03/04 03:09:04;;;;;;;31.97;20.60;;;;;;;7.05;46.38;100912.11;1737905;82;21182;-74
2021/03/04 03:11:31;;;;;;;29.55;15.90;;;;;;;7.06;46.35;100911.14;1737574;81;21095;-77
2021/03/04 03:13:59;;;;;;;23.30;14.63;;;;;;;7.06;46.35;100912.47;1708754;82;21135;-76
2021/03/04 03:16:31;;;;;;;21.65;12.65;;;;;;;7.05;46.38;100899.64;1710547;82;21072;-73
2021/03/04 03:19:02;;;;;;;18.10;12.28;;;;;;;7.06;46.35;100905.81;1737879;82;21079;-73
2021/03/04 03:21:30;;;;;;;17.37;12.10;;;;;;;7.06;46.33;100894.67;1737156;82;21098;-77
2021/03/04 03:23:57;;;;;;;19.20;12.58;;;;;;;7.07;46.27;100890.19;1735934;82;21645;-75
2021/03/04 03:26:25;;;;;;;17.23;11.88;;;;;;;7.06;46.27;100880.02;1736057;82;21131;-75
2021/03/04 03:28:53;;;;;;;18.10;11.63;;;;;;;7.04;46.25;100875.31;1736024;82;21206;-75
2021/03/04 03:31:23;;;;;;;19.57;12.45;;;;;;;7.05;46.29;100878.33;1736014;82;21124;-76
2021/03/04 03:33:52;;;;;;;18.42;11.38;;;;;;;7.05;46.26;100876.16;1736102;82;21534;-77
2021/03/04 03:36:22;;;;;;;18.73;11.63;;;;;;;7.01;46.23;100866.72;1707532;82;21522;-78
2021/03/04 03:38:50;;;;;;;21.07;12.15;;;;;;;6.92;46.35;100857.66;1736057;82;21096;-77
2021/03/04 03:41:18;;;;;;;22.02;12.43;;;;;;;6.88;46.46;100856.70;1736140;82;21104;-75
2021/03/04 03:43:45;;;;;;;21.93;12.43;;;;;;;6.82;46.57;100858.05;1736117;82;21147;-76
2021/03/04 03:46:16;;;;;;;18.30;11.93;;;;;;;6.82;46.66;100856.73;1707208;82;21182;-77
2021/03/04 03:48:47;;;;;;;19.48;12.50;;;;;;;6.83;46.69;100853.09;1708580;82;21577;-76
2021/03/04 03:51:15;;;;;;;20.80;13.28;;;;;;;6.87;46.73;100847.88;1735925;82;21135;-77
2021/03/04 03:53:43;;;;;;;23.07;13.72;;;;;;;6.87;46.72;100837.22;1735739;81;21163;-76
2021/03/04 03:56:10;;;;;;;25.43;14.47;;;;;;;6.90;46.67;100834.29;1735946;82;21088;-77
2021/03/04 03:58:38;;;;;;;24.15;15.03;;;;;;;6.90;46.58;100824.13;1706651;82;21107;-76
2021/03/04 04:01:06;;;;;;;25.50;16.87;;;;;;;6.86;46.68;100823.06;1735824;82;21138;-78
2021/03/04 04:03:34;;;;;;;30.05;17.85;;;;;;;6.84;46.72;100821.00;1736121;82;21135;-76
2021/03/04 04:06:03;;;;;;;27.13;15.68;;;;;;;6.88;46.74;100813.61;1735979;82;21080;-78
2021/03/04 04:08:31;;;;;;;26.80;15.03;;;;;;;6.89;46.72;100811.30;1735767;82;21108;-77
2021/03/04 04:10:58;;;;;;;20.70;13.13;;;;;;;6.90;46.69;100807.66;1735819;81;21598;-76
2021/03/04 04:13:25;;;;;;;22.80;13.05;;;;;;;6.91;46.74;100796.06;1706697;82;21210;-74
2021/03/04 04:15:53;;;;;;;22.32;13.08;;;;;;;6.93;46.67;100779.95;1734594;82;21182;-75
2021/03/04 04:18:20;;;;;;;19.23;12.18;;;;;;;6.97;46.63;100782.72;1706460;82;21123;-78
2021/03/04 04:20:50;;;;;;;18.37;12.10;;;;;;;6.99;46.54;100772.28;1681372;84;21206;-76
2021/03/04 04:23:19;;;;;;;16.30;11.40;;;;;;;7.01;46.57;100767.69;1704275;84;21189;-77
2021/03/04 04:25:53;;;;;;;20.30;12.60;;;;;;;7.02;46.47;100767.20;1723786;82;21203;-77
2021/03/04 04:28:26;;;;;;;19.73;12.33;;;;;;;7.02;46.46;100760.55;1717602;82;21690;-73
2021/03/04 04:30:50;;;;;;;20.05;13.13;;;;;;;7.01;46.65;100756.20;1706995;81;21489;-77
2021/03/04 04:33:18;;;;;;;20.92;12.13;;;;;;;7.02;46.57;100743.23;1733124;82;21206;-73
2021/03/04 04:35:46;;;;;;;22.87;12.78;;;;;;;7.04;46.50;100751.46;1733554;82;21705;-76
2021/03/04 04:38:14;;;;;;;20.60;12.55;;;;;;;7.05;46.45;100749.16;1733099;82;21692;-78
2021/03/04 04:40:41;;;;;;;21.95;12.33;;;;;;;7.07;46.49;100747.19;1734198;82;21211;-77
2021/03/04 04:43:09;;;;;;;23.22;13.32;;;;;;;7.06;46.50;100744.17;1734406;82;21222;-74
2021/03/04 04:45:37;;;;;;;23.92;13.15;;;;;;;7.06;46.52;100748.17;1731440;81;21604;-77
2021/03/04 04:48:06;;;;;;;20.95;13.50;;;;;;;7.08;46.45;100742.22;1706458;83;21131;-76
2021/03/04 04:50:34;;;;;;;27.15;13.90;;;;;;;7.09;46.40;100737.27;1678909;82;21617;-72
2021/03/04 04:53:02;;;;;;;22.50;14.28;;;;;;;7.08;46.37;100738.22;1706104;84;21235;-76
2021/03/04 04:55:31;;;;;;;20.65;12.63;;;;;;;7.06;46.34;100738.84;1713026;82;21170;-75
2021/03/04 04:58:01;;;;;;;22.17;12.30;;;;;;;7.07;46.35;100732.54;1713660;81;21225;-75
2021/03/04 05:00:29;;;;;;;20.35;12.78;;;;;;;7.08;46.35;100734.22;1711777;81;21678;-75
2021/03/04 05:02:59;;;;;;;23.70;13.13;;;;;;;7.09;46.34;100721.78;1726614;82;21520;-77
2021/03/04 05:05:27;;;;;;;23.92;14.07;;;;;;;7.07;46.31;100727.21;1703235;84;21243;-77
2021/03/04 05:07:54;;;;;;;25.27;13.08;;;;;;;7.06;46.32;100715.37;1703794;81;21601;-76
2021/03/04 05:10:21;;;;;;;23.40;14.13;;;;;;;7.05;46.34;100722.52;1703186;84;21234;-79
2021/03/04 05:12:49;;;;;;;26.70;15.83;;;;;;;7.02;46.35;100722.77;1702757;82;21210;-75
2021/03/04 05:15:20;;;;;;;21.40;12.90;;;;;;;6.99;46.44;100721.67;1675158;84;21244;-79
2021/03/04 05:17:47;;;;;;;26.62;15.85;;;;;;;7.00;46.48;100722.06;1709932;82;21236;-78
2021/03/04 05:20:15;;;;;;;29.65;17.25;;;;;;;7.00;46.53;100720.73;1703531;81;21548;-76
2021/03/04 05:22:42;;;;;;;24.10;15.85;;;;;;;6.99;46.51;100703.03;1703129;84;21222;-74
2021/03/04 05:25:12;;;;;;;38.48;20.08;;;;;;;7.02;46.61;100708.11;1718989;81;21517;-76
2021/03/04 05:27:40;;;;;;;34.03;19.48;;;;;;;7.03;46.58;100705.80;1708047;81;22516;-75
2021/03/04 05:30:08;;;;;;;26.60;16.50;;;;;;;7.06;46.60;100705.55;1719678;81;21463;-77
2021/03/04 05:32:36;;;;;;;28.40;17.10;;;;;;;7.14;46.62;100697.41;1712529;82;21146;-75
2021/03/04 05:35:05;;;;;;;32.03;18.35;;;;;;;7.22;46.63;100698.45;1704917;82;21155;-77
2021/03/04 05:37:33;;;;;;;28.83;18.00;;;;;;;7.31;46.50;100683.02;1682297;81;21638;-78
2021/03/04 05:40:01;;;;;;;29.82;18.12;;;;;;;7.41;46.44;100679.06;1723070;81;21150;-74
2021/03/04 05:42:31;;;;;;;31.87;19.70;;;;;;;7.50;46.32;100678.27;1705832;81;21147;-77
2021/03/04 05:44:59;;;;;;;40.58;22.30;;;;;;;7.57;46.27;100674.57;1729928;81;21655;-77
2021/03/04 05:47:28;;;;;;;35.95;21.07;;;;;;;7.66;46.16;100669.77;1726550;81;21155;-77
2021/03/04 05:50:07;;;;;;;37.35;20.20;;;;;;;7.72;46.12;100659.05;1694270;84;21166;-78
2021/03/04 05:52:35;;;;;;;40.25;18.77;;;;;;;7.80;46.00;100661.89;1728254;81;21897;-77
2021/03/04 05:55:04;;;;;;;35.25;17.27;;;;;;;7.83;46.00;100646.96;1720545;81;21242;-77
2021/03/04 05:57:31;;;;;;;28.73;16.80;;;;;;;7.86;45.97;100645.36;1696405;82;21234;-78
2021/03/04 05:59:59;;;;;;;28.90;16.62;;;;;;;7.84;45.92;100640.64;1716893;81;21204;-77
2021/03/04 06:02:27;;;;;;;27.65;16.12;;;;;;;7.84;46.11;100629.97;1715907;81;21218;-78
2021/03/04 06:04:55;;;;;;;30.27;17.70;;;;;;;7.92;46.32;100625.30;1716584;81;21237;-77
2021/03/04 06:07:24;;;;;;;30.17;17.48;;;;;;;8.03;46.05;100617.16;1725150;81;21707;-79
2021/03/04 06:09:52;;;;;;;26.40;15.95;;;;;;;8.10;45.96;100612.48;1712072;81;21205;-75
2021/03/04 06:12:20;;;;;;;36.30;19.67;;;;;;;8.21;45.90;100611.50;1713729;81;21221;-76
2021/03/04 06:14:48;;;;;;;30.32;18.17;;;;;;;8.30;45.70;100600.48;1730189;81;21169;-75
2021/03/04 06:17:17;;;;;;;25.23;15.28;;;;;;;8.33;45.62;100594.88;1711941;82;21131;-74
2021/03/04 06:19:59;;;;;;;26.37;16.17;;;;;;;8.38;45.83;100591.32;1725206;81;21145;-75
2021/03/04 06:22:34;;;;;;;24.37;16.07;;;;;;;8.49;45.55;100592.99;1718613;81;21174;-75
2021/03/04 06:25:10;;;;;;;20.95;13.75;;;;;;;8.54;45.71;100581.39;1722850;81;21179;-77
2021/03/04 06:27:42;;;;;;;23.18;13.75;;;;;;;8.62;45.69;100577.03;1724106;81;21167;-78
2021/03/04 06:30:14;;;;;;;22.55;14.83;;;;;;;8.66;45.53;100576.75;1721553;81;21144;-75
2021/03/04 06:33:01;;;;;;;27.70;16.37;;;;;;;8.69;45.50;100571.98;1723281;81;21183;-74
2021/03/04 06:35:40;;;;;;;22.90;14.28;;;;;;;8.72;45.56;100570.83;1725598;81;21117;-76
2021/03/04 06:38:20;;;;;;;24.02;14.25;;;;;;;8.72;45.44;100566.83;1723377;81;21111;-77
2021/03/04 06:40:49;;;;;;;27.50;17.62;;;;;;;8.71;45.56;100567.81;1689521;81;21174;-75
2021/03/04 06:43:23;;;;;;;31.23;18.27;;;;;;;8.74;45.60;100570.21;1724287;81;21608;-75
2021/03/04 06:46:04;;;;;;;31.50;18.02;;;;;;;8.75;45.44;100570.55;1720470;81;21440;-75
2021/03/04 06:48:32;;;;;;;30.52;18.23;;;;;;;8.73;45.44;100555.19;1710518;81;21589;-75
2021/03/04 06:51:01;;;;;;;31.95;19.57;;;;;;;8.73;45.48;100559.19;1721074;81;21107;-75
2021/03/04 06:53:34;;;;;;;25.32;16.93;;;;;;;8.74;45.58;100554.19;1721700;81;21157;-74
2021/03/04 06:56:04;;;;;;;25.00;15.98;;;;;;;8.77;45.85;100547.23;1716874;81;21538;-76
2021/03/04 06:58:40;;;;;;;26.85;15.93;;;;;;;8.82;45.68;100540.97;1694612;81;21189;-76
2021/03/04 07:01:16;;;;;;;29.25;16.12;;;;;;;8.86;45.60;100533.02;1712406;82;21157;-75
2021/03/04 07:03:51;;;;;;;26.07;16.73;;;;;;;8.87;45.77;100534.19;1723457;81;21152;-76
2021/03/04 07:06:25;;;;;;;28.65;17.05;;;;;;;8.90;45.76;100527.70;1721905;81;21127;-74
2021/03/04 07:08:54;;;;;;;23.22;15.80;;;;;;;8.89;45.70;100530.03;1726468;81;21161;-75
2021/03/04 07:11:24;;;;;;;28.07;16.67;;;;;;;8.85;45.86;100520.12;1723868;81;21202;-75
2021/03/04 07:13:53;;;;;;;27.40;15.78;;;;;;;8.88;45.99;100516.33;1724094;81;21163;-76
2021/03/04 07:16:33;;;;;;;24.52;15.55;;;;;;;8.95;46.19;100522.79;1693053;81;21132;-76
2021/03/04 07:19:01;;;;;;;28.65;17.77;;;;;;;9.02;46.38;100520.36;1724506;81;21134;-78
2021/03/04 07:21:43;;;;;;;33.98;19.25;;;;;;;9.17;46.23;100522.89;1723723;81;21162;-78
2021/03/04 07:24:21;;;;;;;49.70;26.62;;;;;;;9.33;45.95;100518.25;1767397;78;22079;-75
2021/03/04 07:26:50;;;;;;;52.30;27.60;;;;;;;9.39;45.88;100512.30;1739706;80;21236;-75
2021/03/04 07:29:18;;;;;;;50.08;24.37;;;;;;;9.49;45.71;100509.07;1708472;81;21659;-76
2021/03/04 07:31:46;;;;;;;36.23;20.35;;;;;;;9.54;45.53;100509.48;1766262;79;21715;-76
2021/03/04 07:34:16;;;;;;;31.77;19.17;;;;;;;9.61;45.76;100506.54;1761404;79;21188;-78
2021/03/04 07:36:49;;;;;;;32.03;19.75;;;;;;;9.77;45.60;100503.71;1766134;79;21167;-78
2021/03/04 07:39:35;;;;;;;33.55;20.23;;;;;;;9.96;45.34;100506.73;1760455;79;21240;-75
2021/03/04 07:42:21;;;;;;;38.83;23.70;;;;;;;10.25;45.28;100502.48;1741405;80;21137;-76
2021/03/04 07:44:57;;;;;;;36.40;19.95;;;;;;;10.71;44.71;100492.44;1810409;77;22836;-77
2021/03/04 07:47:27;;;;;;;36.70;20.88;;;;;;;11.01;44.24;100497.80;1774469;79;21197;-75
2021/03/04 07:49:55;;;;;;;37.13;21.55;;;;;;;11.35;43.81;100499.94;1753030;80;21135;-75
2021/03/04 07:52:24;;;;;;;33.88;18.80;;;;;;;11.67;43.06;100491.66;1763751;79;21156;-75
2021/03/04 07:54:55;;;;;;;30.92;17.37;;;;;;;11.98;42.71;100480.33;1751262;79;21714;-77
2021/03/04 07:57:26;;;;;;;35.23;20.55;;;;;;;12.27;42.21;100475.31;1716443;81;21129;-76
2021/03/04 07:59:56;;;;;;;39.60;22.75;;;;;;;12.55;41.52;100474.45;1712486;80;21116;-75
2021/03/04 08:02:39;;;;;;;36.83;20.95;;;;;;;12.78;41.18;100460.28;1767278;78;21149;-77
2021/03/04 08:05:09;;;;;;;44.03;23.25;;;;;;;13.01;40.38;100460.37;1767768;78;21106;-76
2021/03/04 08:07:43;;;;;;;40.50;22.15;;;;;;;13.17;40.24;100457.60;1732354;80;21120;-76
2021/03/04 08:10:20;;;;;;;38.53;22.22;;;;;;;13.32;40.00;100455.06;1749608;79;21153;-75
2021/03/04 08:13:02;;;;;;;38.28;21.37;;;;;;;13.45;39.68;100452.12;1747881;79;21134;-77
2021/03/04 08:15:40;;;;;;;35.38;20.50;;;;;;;13.62;39.72;100437.20;1772796;78;21124;-74
2021/03/04 08:18:21;;;;;;;40.10;23.67;;;;;;;13.82;39.10;100444.33;1761785;80;21593;-75
2021/03/04 08:20:53;;;;;;;31.15;18.10;;;;;;;13.95;39.16;100431.93;1745343;80;21133;-76
2021/03/04 08:23:21;;;;;;;37.98;24.00;;;;;;;14.07;38.47;100427.45;1770557;79;21153;-77
2021/03/04 08:25:49;;;;;;;38.98;23.12;;;;;;;14.14;38.48;100426.55;1771666;78;21149;-78
2021/03/04 08:28:28;;;;;;;35.52;21.23;;;;;;;14.26;38.44;100422.05;1772767;78;21134;-76
2021/03/04 08:31:00;;;;;;;35.80;21.93;;;;;;;14.41;38.38;100422.42;1771267;79;21140;-78
2021/03/04 08:33:27;;;;;;;31.20;18.60;;;;;;;14.56;37.86;100416.23;1735114;80;21160;-76
2021/03/04 08:35:59;;;;;;;33.88;20.00;;;;;;;14.69;37.72;100405.12;1766990;78;21136;-76
2021/03/04 08:38:25;;;;;;;36.88;20.02;;;;;;;14.85;37.72;100396.50;1752502;79;21119;-76
2021/03/04 08:40:58;;;;;;;40.05;21.25;;;;;;;14.96;37.40;100400.92;1754743;79;21227;-76
2021/03/04 08:43:27;;;;;;;32.58;19.40;;;;;;;15.10;37.28;100399.22;1756337;79;21215;-76
2021/03/04 08:45:57;;;;;;;37.63;20.40;;;;;;;15.27;37.10;100393.62;1755720;79;21145;-76
2021/03/04 08:48:26;;;;;;;39.90;21.35;;;;;;;15.38;36.79;100399.85;1771168;78;21154;-76
2021/03/04 08:51:00;;;;;;;36.95;22.27;;;;;;;15.39;36.58;100392.07;1727479;80;21118;-74
2021/03/04 08:53:31;;;;;;;36.85;20.97;;;;;;;15.39;36.57;100388.86;1748767;80;21648;-75
2021/03/04 08:56:03;;;;;;;37.60;23.70;;;;;;;15.44;36.55;100387.80;1745486;80;21192;-75
2021/03/04 08:58:42;;;;;;;34.65;21.40;;;;;;;15.48;36.57;100382.83;1770287;79;21165;-77
2021/03/04 09:01:10;;;;;;;34.88;21.17;;;;;;;15.49;36.40;100385.87;1770407;79;21112;-75
2021/03/04 09:03:42;;;;;;;35.33;21.62;;;;;;;15.48;36.44;100374.73;1769237;79;21110;-75
2021/03/04 09:06:14;;;;;;;30.85;18.25;;;;;;;15.47;36.46;100362.27;1760616;80;21137;-77
2021/03/04 09:08:49;;;;;;;33.05;19.20;;;;;;;15.48;36.43;100366.63;1715868;80;21139;-77
2021/03/04 09:11:33;;;;;;;32.58;20.00;;;;;;;15.46;36.33;100356.55;1771260;78;21183;-76
2021/03/04 09:14:09;;;;;;;34.20;20.27;;;;;;;15.41;36.35;100354.95;1773016;78;21125;-77
2021/03/04 09:16:48;;;;;;;39.33;22.67;;;;;;;15.36;36.41;100351.47;1772081;78;21114;-76
2021/03/04 09:19:38;;;;;;;33.95;21.77;;;;;;;15.23;36.00;100349.47;1771484;79;21126;-76
2021/03/04 09:22:08;;;;;;;35.10;18.73;;;;;;;15.03;36.39;100353.78;1747146;80;21157;-77
2021/03/04 09:24:39;;;;;;;33.23;18.10;;;;;;;14.87;36.62;100345.42;1769901;78;21637;-77
2021/03/04 09:27:08;;;;;;;30.20;18.15;;;;;;;14.78;36.92;100337.62;1736244;80;21118;-77
2021/03/04 09:29:41;;;;;;;34.20;19.92;;;;;;;14.77;37.12;100331.41;1770161;78;21126;-77
2021/03/04 09:32:09;;;;;;;31.55;18.82;;;;;;;14.82;36.94;100330.32;1741069;79;21624;-75
2021/03/04 09:34:41;;;;;;;32.17;19.07;;;;;;;14.82;36.95;100324.09;1750642;80;21113;-75
2021/03/04 09:37:22;;;;;;;33.55;19.02;;;;;;;14.81;37.04;100321.08;1772406;78;21143;-73
2021/03/04 09:39:51;;;;;;;27.07;17.23;;;;;;;14.77;36.68;100323.83;1769825;78;21874;-78
2021/03/04 09:42:39;;;;;;;31.55;16.77;;;;;;;14.66;37.03;100309.78;1750023;79;21117;-76
2021/03/04 09:45:18;;;;;;;34.05;18.62;;;;;;;14.63;37.15;100306.14;1719940;79;21667;-76
2021/03/04 09:47:45;;;;;;;37.45;19.37;;;;;;;14.64;37.00;100305.11;1750839;79;21142;-74
2021/03/04 09:50:26;;;;;;;40.63;21.07;;;;;;;14.62;37.20;100303.09;1751158;79;21145;-75
2021/03/04 09:53:04;;;;;;;39.98;20.12;;;;;;;14.63;37.10;100298.05;1751712;79;21132;-74
2021/03/04 09:55:39;;;;;;;31.77;18.87;;;;;;;14.65;37.23;100295.98;1750848;79;21134;-76
2021/03/04 09:58:20;;;;;;;36.53;21.02;;;;;;;14.62;36.99;100288.27;1751575;79;21102;-77
2021/03/04 10:00:57;;;;;;;28.02;16.55;;;;;;;14.55;37.42;100286.02;1749037;79;21166;-76
2021/03/04 10:03:33;;;;;;;34.25;18.80;;;;;;;14.57;37.40;100282.61;1740385;78;21150;-76
2021/03/04 10:06:08;;;;;;;35.58;18.65;;;;;;;14.56;37.31;100280.11;1769296;78;21174;-74
2021/03/04 10:08:37;;;;;;;34.08;19.10;;;;;;;14.56;37.26;100270.16;1723952;81;21135;-76
2021/03/04 10:11:05;;;;;;;31.15;17.62;;;;;;;14.57;37.37;100259.70;1754118;79;21238;-74
2021/03/04 10:13:33;;;;;;;33.30;18.98;;;;;;;14.56;37.44;100254.00;1751015;79;21781;-75
2021/03/04 10:16:13;;;;;;;29.63;17.95;;;;;;;14.57;37.36;100251.62;1747840;79;21165;-76
2021/03/04 10:18:45;;;;;;;28.77;17.00;;;;;;;14.61;37.57;100248.87;1748923;79;21631;-75
2021/03/04 10:21:14;;;;;;;27.05;17.77;;;;;;;14.66;37.42;100246.95;1751826;79;21106;-77
2021/03/04 10:23:44;;;;;;;30.55;18.35;;;;;;;14.67;37.45;100231.95;1751261;79;21072;-79
2021/03/04 10:26:11;;;;;;;29.48;17.25;;;;;;;14.62;37.29;100226.78;1771992;80;21170;-78
2021/03/04 10:28:39;;;;;;;23.90;15.05;;;;;;;14.52;37.43;100217.66;1770756;79;20963;-77
2021/03/04 10:31:07;;;;;;;31.45;17.40;;;;;;;14.51;37.49;100220.05;1747590;80;21103;-78
2021/03/04 10:33:35;;;;;;;32.03;17.48;;;;;;;14.49;37.65;100219.41;1773678;80;21083;-74
2021/03/04 10:36:06;;;;;;;38.50;21.77;;;;;;;14.50;37.69;100210.81;1772717;80;21165;-76
2021/03/04 10:38:34;;;;;;;36.70;23.57;;;;;;;14.52;37.24;100196.61;1737296;81;21210;-79
2021/03/04 10:41:02;;;;;;;35.58;20.12;;;;;;;14.47;37.55;100207.94;1757663;79;21428;-75
2021/03/04 10:43:29;;;;;;;34.00;19.80;;;;;;;14.46;37.76;100190.94;1754473;79;21578;-74
2021/03/04 10:45:59;;;;;;;35.08;20.20;;;;;;;14.50;37.84;100170.38;1750526;79;21201;-75
2021/03/04 10:48:27;;;;;;;34.08;20.00;;;;;;;14.49;37.64;100181.67;1776348;78;21762;-75
2021/03/04 10:50:56;;;;;;;30.85;18.75;;;;;;;14.50;37.60;100180.64;1775903;78;21183;-78
2021/03/04 10:53:25;;;;;;;27.45;17.48;;;;;;;14.53;37.93;100183.45;1743208;78;21208;-76
2021/03/04 10:55:52;;;;;;;34.45;19.92;;;;;;;14.57;37.67;100180.19;1740784;80;21268;-76
2021/03/04 10:58:20;;;;;;;36.13;19.40;;;;;;;14.59;37.78;100174.62;1739672;80;21217;-75
2021/03/04 11:00:50;;;;;;;30.48;18.25;;;;;;;14.60;37.77;100170.38;1767383;78;21236;-76
2021/03/04 11:03:18;;;;;;;29.75;17.98;;;;;;;14.62;37.41;100166.14;1772522;78;21765;-74
2021/03/04 11:05:46;;;;;;;34.92;20.92;;;;;;;14.57;37.73;100161.32;1760870;79;21661;-76
2021/03/04 11:08:14;;;;;;;30.57;18.23;;;;;;;14.57;37.84;100168.58;1741238;80;21715;-76
2021/03/04 11:10:42;;;;;;;33.20;19.17;;;;;;;14.57;37.93;100159.14;1737366;79;21067;-76
2021/03/04 11:13:10;;;;;;;36.33;17.92;;;;;;;14.59;38.14;100149.02;1765031;78;21710;-75
2021/03/04 11:15:37;;;;;;;31.20;17.70;;;;;;;14.61;38.02;100149.13;1745125;79;21445;-76
2021/03/04 11:18:08;;;;;;;28.38;17.35;;;;;;;14.63;38.00;100144.41;1718839;79;21238;-75
2021/03/04 11:20:37;;;;;;;27.17;17.67;;;;;;;14.64;38.13;100136.63;1725409;79;21662;-75
2021/03/04 11:23:04;;;;;;;27.65;16.62;;;;;;;14.64;38.01;100141.19;1735274;79;21158;-75
2021/03/04 11:25:33;;;;;;;33.20;17.77;;;;;;;14.65;37.88;100136.94;1769063;78;21182;-76
2021/03/04 11:28:02;;;;;;;31.93;17.90;;;;;;;14.63;38.06;100132.27;1746467;79;21190;-76
2021/03/04 11:30:30;;;;;;;30.57;18.17;;;;;;;14.60;38.22;100113.78;1746549;79;21145;-78